Terminal Aerodrome Forecast
Issued by NWS

Home | Current Version | Previous Version | Text Only | Print | Product List | Glossary On
Versions: 1 2 3 4 5 6 7 8 9 10 11 12 13 14 15 16 17 18 19 20 21 22 23 24
165
FTUS43 KDLH 240805 AAB
TAFHYR
TAF AMD
KHYR 240805Z 2408/2506 19003KT P6SM VCTS OVC013CB
      TEMPO 2408/2410 1SM -TSRA BR BKN005CB OVC010
     FM241600 26008KT P6SM SCT020
     FM250100 VRB03KT P6SM SCT200=

USA.gov is the U.S. government's official web portal to all federal, state and local government web resources and services.